createdAt,value
2023-03-25T00:00:20.871Z,44.35
2023-03-25T00:02:50.509Z,44.22
2023-03-25T00:05:20.183Z,44.53
2023-03-25T00:07:50.653Z,44.39
2023-03-25T00:10:18.567Z,44.78
2023-03-25T00:12:46.014Z,44.86
2023-03-25T00:15:14.073Z,44.20
2023-03-25T00:17:42.434Z,44.90
2023-03-25T00:20:11.511Z,45.12
2023-03-25T00:22:44.620Z,45.78
2023-03-25T00:25:17.545Z,45.04
2023-03-25T00:27:47.867Z,45.27
2023-03-25T00:30:16.615Z,45.37
2023-03-25T00:32:50.298Z,46.77
2023-03-25T00:35:19.982Z,46.54
2023-03-25T00:37:57.485Z,46.68
2023-03-25T00:40:30.884Z,46.00
2023-03-25T00:42:58.298Z,46.47
2023-03-25T00:45:26.109Z,47.38
2023-03-25T00:47:53.672Z,46.97
2023-03-25T00:50:21.832Z,46.47
2023-03-25T00:52:49.607Z,46.30
2023-03-25T00:55:17.408Z,46.41
2023-03-25T00:57:44.826Z,47.46
2023-03-25T01:00:15.996Z,48.45
2023-03-25T01:02:43.849Z,47.99
2023-03-25T01:05:11.891Z,48.49
2023-03-25T01:07:40.177Z,48.41
2023-03-25T01:10:09.129Z,48.28
2023-03-25T01:12:36.612Z,48.97
2023-03-25T01:15:04.607Z,48.91
2023-03-25T01:17:32.041Z,50.78
2023-03-25T01:19:59.533Z,52.48
2023-03-25T01:22:27.216Z,53.03
2023-03-25T01:24:55.456Z,52.02
2023-03-25T01:27:24.545Z,52.77
2023-03-25T01:29:54.570Z,53.38
2023-03-25T01:32:22.057Z,53.10
2023-03-25T01:34:49.694Z,55.11
2023-03-25T01:37:18.360Z,53.16
2023-03-25T01:39:45.872Z,54.64
2023-03-25T01:42:13.263Z,53.76
2023-03-25T01:44:41.082Z,54.50
2023-03-25T01:47:08.949Z,53.69
2023-03-25T01:49:40.824Z,53.63
2023-03-25T01:52:13.221Z,53.78
2023-03-25T01:54:41.093Z,54.61
2023-03-25T01:57:10.416Z,54.80
2023-03-25T01:59:38.563Z,53.12
2023-03-25T02:02:08.556Z,56.68
2023-03-25T02:04:58.785Z,56.59
2023-03-25T02:07:34.016Z,58.23
2023-03-25T02:10:09.495Z,57.58
2023-03-25T02:12:37.355Z,59.21
2023-03-25T02:15:07.929Z,61.45
2023-03-25T02:17:40.471Z,61.07
2023-03-25T02:20:30.307Z,60.88
2023-03-25T02:23:07.685Z,61.81
2023-03-25T02:25:54.953Z,61.03
2023-03-25T02:28:36.457Z,60.62
2023-03-25T02:31:29.725Z,61.52
2023-03-25T02:34:23.093Z,61.17
2023-03-25T02:37:18.932Z,62.09
2023-03-25T02:40:11.011Z,59.47
2023-03-25T02:42:49.115Z,60.31
2023-03-25T02:45:25.421Z,60.25
2023-03-25T02:47:56.188Z,59.80
2023-03-25T02:50:46.166Z,61.04
2023-03-25T02:53:21.184Z,59.91
2023-03-25T02:55:51.309Z,59.00
2023-03-25T02:58:21.643Z,60.75
2023-03-25T03:00:50.556Z,61.63
2023-03-25T03:03:18.253Z,62.66
2023-03-25T03:05:51.084Z,62.22
2023-03-25T03:08:46.459Z,61.98
2023-03-25T03:11:20.103Z,62.72
2023-03-25T03:13:59.222Z,65.15
2023-03-25T03:16:52.086Z,65.00
2023-03-25T03:19:38.354Z,65.11
2023-03-25T03:22:46.989Z,66.05
2023-03-25T03:25:32.431Z,68.06
2023-03-25T03:28:07.831Z,68.84
2023-03-25T03:30:46.595Z,67.60
2023-03-25T03:33:33.840Z,70.74
2023-03-25T03:36:05.504Z,68.89
2023-03-25T03:38:38.576Z,69.10
2023-03-25T03:41:10.199Z,69.89
2023-03-25T03:43:46.349Z,69.16
2023-03-25T03:46:21.077Z,68.29
2023-03-25T03:48:53.128Z,68.39
2023-03-25T03:51:25.417Z,67.70
2023-03-25T03:54:14.280Z,65.64
2023-03-25T03:56:46.626Z,67.46
2023-03-25T03:59:21.309Z,65.37
2023-03-25T04:01:54.164Z,65.06
2023-03-25T04:04:31.643Z,65.12
2023-03-25T04:07:20.176Z,65.54
2023-03-25T04:10:15.215Z,65.66
2023-03-25T04:12:46.376Z,65.60
2023-03-25T04:15:14.901Z,66.83
2023-03-25T04:17:43.128Z,64.99
2023-03-25T04:20:14.432Z,65.32
2023-03-25T04:22:46.130Z,65.02
2023-03-25T04:25:14.101Z,64.10
2023-03-25T04:27:49.049Z,66.31
2023-03-25T04:30:19.764Z,65.19
2023-03-25T04:32:47.756Z,64.31
2023-03-25T04:35:17.102Z,63.90
2023-03-25T04:37:49.115Z,64.41
2023-03-25T04:40:19.002Z,63.89
2023-03-25T04:42:47.004Z,63.38
2023-03-25T04:45:17.032Z,63.09
2023-03-25T04:47:47.313Z,62.35
2023-03-25T04:50:27.265Z,63.51
2023-03-25T04:52:57.580Z,62.09
2023-03-25T04:55:25.902Z,60.91
2023-03-25T04:57:54.625Z,61.79
2023-03-25T05:00:24.459Z,60.94
2023-03-25T05:02:54.778Z,61.76
2023-03-25T05:05:24.598Z,60.92
2023-03-25T05:07:53.738Z,61.98
2023-03-25T05:10:23.759Z,62.02
2023-03-25T05:12:58.478Z,61.89
2023-03-25T05:15:26.544Z,62.04
2023-03-25T05:17:54.188Z,62.12
2023-03-25T05:20:23.011Z,61.25
2023-03-25T05:22:53.320Z,60.23
2023-03-25T05:25:22.685Z,61.57
2023-03-25T05:27:50.079Z,59.21
2023-03-25T05:30:17.504Z,60.55
2023-03-25T05:32:45.876Z,59.94
2023-03-25T05:35:13.384Z,59.73
2023-03-25T05:37:40.794Z,60.58
2023-03-25T05:40:14.474Z,59.86
2023-03-25T05:42:47.209Z,59.29
2023-03-25T05:45:16.520Z,59.12
2023-03-25T05:47:44.478Z,58.35
2023-03-25T05:50:12.378Z,58.97
2023-03-25T05:52:43.781Z,59.06
2023-03-25T05:55:15.819Z,58.89
2023-03-25T05:57:43.857Z,58.70
2023-03-25T06:00:12.855Z,58.52
2023-03-25T06:02:43.217Z,58.00
2023-03-25T06:05:14.023Z,57.33
2023-03-25T06:07:43.186Z,57.52
2023-03-25T06:10:11.070Z,58.09
2023-03-25T06:12:39.263Z,58.23
2023-03-25T06:15:09.317Z,58.01
2023-03-25T06:17:39.726Z,58.31
2023-03-25T06:20:12.593Z,57.66
2023-03-25T06:22:43.036Z,57.47
2023-03-25T06:25:13.217Z,59.05
2023-03-25T06:27:42.024Z,58.29
2023-03-25T06:30:12.730Z,57.61
2023-03-25T06:32:40.512Z,57.96
2023-03-25T06:35:09.816Z,57.20
2023-03-25T06:37:38.186Z,58.15
2023-03-25T06:40:07.155Z,57.60
2023-03-25T06:42:34.626Z,57.58
2023-03-25T06:45:05.190Z,57.34
2023-03-25T06:47:34.560Z,57.75
2023-03-25T06:50:02.202Z,58.35
2023-03-25T06:52:29.684Z,58.05
2023-03-25T06:54:57.413Z,58.70
2023-03-25T06:57:24.848Z,59.75
2023-03-25T06:59:52.246Z,58.37
2023-03-25T07:02:19.865Z,58.84
2023-03-25T07:04:47.275Z,57.65
2023-03-25T07:07:14.713Z,57.55
2023-03-25T07:09:42.396Z,58.56
2023-03-25T07:12:09.849Z,59.30
2023-03-25T07:14:37.277Z,57.79
2023-03-25T07:17:04.950Z,59.32
2023-03-25T07:19:32.357Z,58.33
2023-03-25T07:21:59.729Z,57.33
2023-03-25T07:24:27.827Z,59.45
2023-03-25T07:26:55.262Z,57.07
2023-03-25T07:29:23.536Z,58.19
2023-03-25T07:31:51.228Z,56.20
2023-03-25T07:34:18.681Z,56.31
2023-03-25T07:36:46.125Z,56.34
2023-03-25T07:39:13.865Z,55.15
2023-03-25T07:41:43.013Z,54.58
2023-03-25T07:44:10.749Z,54.49
2023-03-25T07:46:38.660Z,54.55
2023-03-25T07:49:06.102Z,53.06
2023-03-25T07:51:35.089Z,51.17
2023-03-25T07:54:04.976Z,52.81
2023-03-25T07:56:33.614Z,50.52
2023-03-25T07:59:01.318Z,46.01
2023-03-25T08:01:29.080Z,42.14
2023-03-25T08:03:57.343Z,41.78
2023-03-25T08:06:24.870Z,42.11
2023-03-25T08:08:52.235Z,44.44
2023-03-25T08:11:19.951Z,45.13
2023-03-25T08:13:47.543Z,45.80
2023-03-25T08:16:15.390Z,46.28
2023-03-25T08:18:45.262Z,45.96
2023-03-25T08:21:13.334Z,45.54
2023-03-25T08:23:41.170Z,43.71
2023-03-25T08:26:10.333Z,42.48
2023-03-25T08:28:38.148Z,43.49
2023-03-25T08:31:08.612Z,41.42
2023-03-25T08:33:40.942Z,42.44
2023-03-25T08:36:13.910Z,43.12
2023-03-25T08:38:41.670Z,42.64
2023-03-25T08:41:09.099Z,43.36
2023-03-25T08:43:36.521Z,44.00
2023-03-25T08:46:04.316Z,44.00
2023-03-25T08:48:31.732Z,43.20
2023-03-25T08:50:59.344Z,42.81
2023-03-25T08:53:27.119Z,42.86
2023-03-25T08:55:56.598Z,43.82
2023-03-25T08:58:25.014Z,42.08
2023-03-25T09:00:55.904Z,42.32
2023-03-25T09:03:24.829Z,42.99
2023-03-25T09:05:52.583Z,41.19
2023-03-25T09:08:21.157Z,41.32
2023-03-25T09:10:48.641Z,43.38
2023-03-25T09:13:16.480Z,42.64
2023-03-25T09:15:45.637Z,40.56
2023-03-25T09:18:13.046Z,39.92
2023-03-25T09:20:41.322Z,40.51
2023-03-25T09:23:09.878Z,39.94
2023-03-25T09:25:37.799Z,39.51
2023-03-25T09:28:05.405Z,40.42
2023-03-25T09:30:33.158Z,40.23
2023-03-25T09:33:01.192Z,38.06
2023-03-25T09:35:28.794Z,39.86
2023-03-25T09:37:56.717Z,39.39
2023-03-25T09:40:24.775Z,38.79
2023-03-25T09:43:08.057Z,38.80
2023-03-25T09:45:39.283Z,37.45
2023-03-25T09:48:24.238Z,38.05
2023-03-25T09:50:51.918Z,37.88
2023-03-25T09:53:38.059Z,38.96
2023-03-25T09:56:14.445Z,38.07
2023-03-25T09:58:44.760Z,37.90
2023-03-25T10:01:46.023Z,38.85
2023-03-25T10:04:34.826Z,39.57
2023-03-25T10:07:23.732Z,37.90
2023-03-25T10:10:05.713Z,38.80
2023-03-25T10:12:46.257Z,38.81
2023-03-25T10:15:41.208Z,39.20
2023-03-25T10:18:18.259Z,39.55
2023-03-25T10:20:55.850Z,39.50
2023-03-25T10:23:41.841Z,39.98
2023-03-25T10:26:23.303Z,39.97
2023-03-25T10:29:06.216Z,40.15
2023-03-25T10:31:38.074Z,38.71
2023-03-25T10:34:09.164Z,38.87
2023-03-25T10:36:42.760Z,36.84
2023-03-25T10:39:15.058Z,36.45
2023-03-25T10:41:43.528Z,37.51
2023-03-25T10:44:11.507Z,36.26
2023-03-25T10:46:52.438Z,35.74
2023-03-25T10:49:27.724Z,36.22
2023-03-25T10:51:57.605Z,36.04
2023-03-25T10:54:29.665Z,36.10
2023-03-25T10:57:00.580Z,36.03
2023-03-25T10:59:39.384Z,37.37
2023-03-25T11:02:20.246Z,36.25
2023-03-25T11:04:51.950Z,36.25
2023-03-25T11:07:23.657Z,35.59
2023-03-25T11:09:51.863Z,36.43
2023-03-25T11:12:27.307Z,37.37
2023-03-25T11:15:02.330Z,37.15
2023-03-25T11:17:29.792Z,37.96
2023-03-25T11:20:00.808Z,37.26
2023-03-25T11:22:30.255Z,35.29
2023-03-25T11:25:07.034Z,36.39
2023-03-25T11:27:48.994Z,36.35
2023-03-25T11:30:21.811Z,37.88
2023-03-25T11:33:13.893Z,37.32
2023-03-25T11:35:49.189Z,37.57
2023-03-25T11:38:22.357Z,37.66
2023-03-25T11:40:54.321Z,37.53
2023-03-25T11:43:24.192Z,37.05
2023-03-25T11:45:52.234Z,37.09
2023-03-25T11:48:22.745Z,37.68
2023-03-25T11:50:56.222Z,37.97
2023-03-25T11:53:26.287Z,37.94
2023-03-25T11:56:12.017Z,38.28
2023-03-25T11:58:40.664Z,38.12
2023-03-25T12:01:22.714Z,38.80
2023-03-25T12:03:51.858Z,38.75
2023-03-25T12:06:23.753Z,38.17
2023-03-25T12:08:59.652Z,38.81
2023-03-25T12:11:36.321Z,38.72
2023-03-25T12:14:29.046Z,38.45
2023-03-25T12:17:18.056Z,38.91
2023-03-25T12:19:58.562Z,39.08
2023-03-25T12:22:28.979Z,38.30
2023-03-25T12:25:30.455Z,38.68
2023-03-25T12:28:48.623Z,39.07
2023-03-25T12:31:51.758Z,39.29
2023-03-25T12:34:22.024Z,38.04
2023-03-25T12:37:17.634Z,37.61
2023-03-25T12:40:06.883Z,38.25
2023-03-25T12:43:08.412Z,37.46
2023-03-25T12:45:50.966Z,37.25
2023-03-25T12:48:21.551Z,36.95
2023-03-25T12:51:04.230Z,36.33
2023-03-25T12:53:32.392Z,36.24
2023-03-25T12:56:11.345Z,35.51
2023-03-25T12:58:48.591Z,35.40
2023-03-25T13:01:31.209Z,35.76
2023-03-25T13:04:21.841Z,36.08
2023-03-25T13:07:07.971Z,36.36
2023-03-25T13:09:39.408Z,37.00
2023-03-25T13:12:15.627Z,36.51
2023-03-25T13:15:01.774Z,37.52
2023-03-25T13:18:00.216Z,36.68
2023-03-25T13:20:30.944Z,35.99
2023-03-25T13:23:02.199Z,35.07
2023-03-25T13:25:36.869Z,35.30
2023-03-25T13:28:06.573Z,35.93
2023-03-25T13:30:39.412Z,34.86
2023-03-25T13:33:13.780Z,36.04
2023-03-25T13:35:55.117Z,35.49
2023-03-25T13:38:34.649Z,35.51
2023-03-25T13:41:20.102Z,35.00
2023-03-25T13:43:54.449Z,34.68
2023-03-25T13:46:27.846Z,35.07
2023-03-25T13:48:59.466Z,35.27
2023-03-25T13:51:27.473Z,35.11
2023-03-25T13:54:25.677Z,34.57
2023-03-25T13:57:21.491Z,34.01
2023-03-25T13:59:52.160Z,34.57
2023-03-25T14:02:34.848Z,34.67
2023-03-25T14:05:44.110Z,35.09
2023-03-25T14:08:27.834Z,35.36
2023-03-25T14:11:14.087Z,34.97
2023-03-25T14:13:47.914Z,36.21
2023-03-25T14:16:17.396Z,36.21
2023-03-25T14:18:49.346Z,36.47
2023-03-25T14:21:38.464Z,36.03
2023-03-25T14:24:27.060Z,36.01
2023-03-25T14:27:01.004Z,35.58
2023-03-25T14:29:31.817Z,35.63
2023-03-25T14:32:02.154Z,35.30
2023-03-25T14:34:29.679Z,35.06
2023-03-25T14:36:57.558Z,34.65
2023-03-25T14:39:28.331Z,34.49
2023-03-25T14:42:04.078Z,35.11
2023-03-25T14:44:34.033Z,35.43
2023-03-25T14:47:02.451Z,34.45
2023-03-25T14:49:54.650Z,33.17
2023-03-25T14:52:29.976Z,33.83
2023-03-25T14:54:58.095Z,33.67
2023-03-25T14:57:28.676Z,32.32
2023-03-25T15:00:01.494Z,31.87
2023-03-25T15:02:32.345Z,32.05
2023-03-25T15:05:14.036Z,31.86
2023-03-25T15:07:50.499Z,31.94
2023-03-25T15:10:26.129Z,33.09
2023-03-25T15:13:05.901Z,33.05
2023-03-25T15:15:58.039Z,33.45
2023-03-25T15:18:31.792Z,33.73
2023-03-25T15:21:13.354Z,34.41
2023-03-25T15:23:47.613Z,33.88
2023-03-25T15:26:24.101Z,34.54
2023-03-25T15:29:04.077Z,34.56
2023-03-25T15:32:13.518Z,35.00
2023-03-25T15:34:46.998Z,34.12
2023-03-25T15:37:45.095Z,34.11
2023-03-25T15:40:14.076Z,33.61
2023-03-25T15:43:10.272Z,34.09
2023-03-25T15:46:15.435Z,33.91
2023-03-25T15:48:51.871Z,33.06
2023-03-25T15:51:52.579Z,33.16
2023-03-25T15:54:53.542Z,34.16
2023-03-25T15:57:24.346Z,33.07
2023-03-25T15:59:59.737Z,32.74
2023-03-25T16:03:02.478Z,33.44
2023-03-25T16:05:31.469Z,32.73
2023-03-25T16:08:01.245Z,33.31
2023-03-25T16:10:36.374Z,32.41
2023-03-25T16:13:12.113Z,32.61
2023-03-25T16:15:39.384Z,32.03
2023-03-25T16:18:08.262Z,32.91
2023-03-25T16:20:36.629Z,32.50
2023-03-25T16:23:06.459Z,32.24
2023-03-25T16:25:38.088Z,32.22
2023-03-25T16:28:08.658Z,32.18
2023-03-25T16:30:39.016Z,32.21
2023-03-25T16:33:10.802Z,33.21
2023-03-25T16:35:43.677Z,32.82
2023-03-25T16:38:20.304Z,33.11
2023-03-25T16:40:49.213Z,32.53
2023-03-25T16:43:19.566Z,32.04
2023-03-25T16:45:48.641Z,32.11
2023-03-25T16:48:18.969Z,32.68
2023-03-25T16:50:46.499Z,32.26
2023-03-25T16:53:15.433Z,32.50
2023-03-25T16:55:51.545Z,32.60
2023-03-25T16:58:27.089Z,32.57
2023-03-25T17:00:56.225Z,32.17
2023-03-25T17:03:43.514Z,32.53
2023-03-25T17:06:28.268Z,32.66
2023-03-25T17:08:57.380Z,32.93
2023-03-25T17:11:32.316Z,32.84
2023-03-25T17:14:20.962Z,32.71
2023-03-25T17:16:50.834Z,32.80
2023-03-25T17:19:19.622Z,32.75
2023-03-25T17:22:04.723Z,32.77
2023-03-25T17:24:41.891Z,32.85
2023-03-25T17:27:20.313Z,32.84
2023-03-25T17:29:57.341Z,32.59
2023-03-25T17:32:25.142Z,32.75
2023-03-25T17:35:06.524Z,32.64
2023-03-25T17:37:34.258Z,32.78
2023-03-25T17:40:10.977Z,32.70
2023-03-25T17:42:38.831Z,32.86
2023-03-25T17:45:07.285Z,32.83
2023-03-25T17:47:34.831Z,32.74
2023-03-25T17:50:13.620Z,32.77
2023-03-25T17:52:41.388Z,32.94
2023-03-25T17:55:09.732Z,33.02
2023-03-25T17:57:37.770Z,33.41
2023-03-25T18:00:12.017Z,33.65
2023-03-25T18:02:40.904Z,33.93
2023-03-25T18:05:08.929Z,33.65
2023-03-25T18:07:36.442Z,33.89
2023-03-25T18:10:14.010Z,34.07
2023-03-25T18:12:41.560Z,34.45
2023-03-25T18:15:09.641Z,34.49
2023-03-25T18:17:37.110Z,34.59
2023-03-25T18:20:17.107Z,34.63
2023-03-25T18:22:45.043Z,34.82
2023-03-25T18:25:13.933Z,34.27
2023-03-25T18:27:44.165Z,34.01
2023-03-25T18:30:23.184Z,33.96
2023-03-25T18:32:50.695Z,34.01
2023-03-25T18:35:18.713Z,33.99
2023-03-25T18:37:48.722Z,34.16
2023-03-25T18:40:16.451Z,34.11
2023-03-25T18:42:44.761Z,33.83
2023-03-25T18:45:12.498Z,34.02
2023-03-25T18:47:39.961Z,35.02
2023-03-25T18:50:16.220Z,35.08
2023-03-25T18:52:44.173Z,36.24
2023-03-25T18:55:12.916Z,37.33
2023-03-25T18:57:42.318Z,37.46
2023-03-25T19:00:16.673Z,39.52
2023-03-25T19:02:44.914Z,39.72
2023-03-25T19:05:13.192Z,39.43
2023-03-25T19:07:40.926Z,39.14
2023-03-25T19:10:15.296Z,38.79
2023-03-25T19:12:44.441Z,38.87
2023-03-25T19:15:15.301Z,39.48
2023-03-25T19:17:44.034Z,40.25
2023-03-25T19:20:17.187Z,40.47
2023-03-25T19:22:45.341Z,40.31
2023-03-25T19:25:13.383Z,40.68
2023-03-25T19:27:42.791Z,40.65
2023-03-25T19:30:13.132Z,40.96
2023-03-25T19:32:42.904Z,41.47
2023-03-25T19:35:11.598Z,42.06
2023-03-25T19:37:47.550Z,42.70
2023-03-25T19:40:20.055Z,43.13
2023-03-25T19:42:48.430Z,44.58
2023-03-25T19:45:17.684Z,45.49
2023-03-25T19:47:45.841Z,47.12
2023-03-25T19:50:16.766Z,46.01
2023-03-25T19:52:45.764Z,46.84
2023-03-25T19:55:14.142Z,49.23
2023-03-25T19:57:42.882Z,47.93
2023-03-25T20:00:16.312Z,49.26
2023-03-25T20:02:47.624Z,49.55
2023-03-25T20:05:15.913Z,49.53
2023-03-25T20:07:45.152Z,48.61
2023-03-25T20:10:20.158Z,50.38
2023-03-25T20:12:50.778Z,48.78
2023-03-25T20:15:20.175Z,46.84
2023-03-25T20:17:52.101Z,46.84
2023-03-25T20:20:20.484Z,46.49
2023-03-25T20:22:48.967Z,46.19
2023-03-25T20:25:17.035Z,46.75
2023-03-25T20:27:45.218Z,46.02
2023-03-25T20:30:16.973Z,46.45
2023-03-25T20:32:47.593Z,46.15
2023-03-25T20:35:17.856Z,45.64
2023-03-25T20:37:46.934Z,45.67
2023-03-25T20:40:16.733Z,45.27
2023-03-25T20:42:46.442Z,45.50
2023-03-25T20:45:16.427Z,45.79
2023-03-25T20:47:44.698Z,46.38
2023-03-25T20:50:14.612Z,46.04
2023-03-25T20:52:42.523Z,46.07
2023-03-25T20:55:11.356Z,45.82
2023-03-25T20:57:39.736Z,45.31
2023-03-25T21:00:08.356Z,45.69
2023-03-25T21:02:36.161Z,45.97
2023-03-25T21:05:05.826Z,45.49
2023-03-25T21:07:35.324Z,44.62
2023-03-25T21:10:03.622Z,44.80
2023-03-25T21:12:42.607Z,44.84
2023-03-25T21:15:13.353Z,44.55
2023-03-25T21:17:41.409Z,45.71
2023-03-25T21:20:09.538Z,44.82
2023-03-25T21:22:43.303Z,44.64
2023-03-25T21:25:13.162Z,44.98
2023-03-25T21:27:42.374Z,44.67
2023-03-25T21:30:10.746Z,44.45
2023-03-25T21:32:38.935Z,44.36
2023-03-25T21:35:07.996Z,44.14
2023-03-25T21:37:38.575Z,44.32
2023-03-25T21:40:08.235Z,43.84
2023-03-25T21:42:38.370Z,43.90
2023-03-25T21:45:08.213Z,43.48
2023-03-25T21:47:36.529Z,44.29
2023-03-25T21:50:09.532Z,44.92
2023-03-25T21:52:43.487Z,44.07
2023-03-25T21:55:11.309Z,44.52
2023-03-25T21:57:39.688Z,44.65
2023-03-25T22:00:08.644Z,44.22
2023-03-25T22:02:39.407Z,44.76
2023-03-25T22:05:07.691Z,44.88
2023-03-25T22:07:35.081Z,44.73
2023-03-25T22:10:04.518Z,44.75
2023-03-25T22:12:32.784Z,44.75
2023-03-25T22:15:00.357Z,45.99
2023-03-25T22:17:28.056Z,46.06
2023-03-25T22:19:55.785Z,46.36
2023-03-25T22:22:23.193Z,48.19
2023-03-25T22:24:50.726Z,45.71
2023-03-25T22:27:18.565Z,46.70
2023-03-25T22:29:46.153Z,46.54
2023-03-25T22:32:14.456Z,46.46
2023-03-25T22:34:42.210Z,46.75
2023-03-25T22:37:09.625Z,46.76
2023-03-25T22:39:37.833Z,47.11
2023-03-25T22:42:05.578Z,48.21
2023-03-25T22:44:33.022Z,47.47
2023-03-25T22:47:00.578Z,48.00
2023-03-25T22:49:28.351Z,48.74
2023-03-25T22:51:56.015Z,48.47
2023-03-25T22:54:23.613Z,47.03
2023-03-25T22:56:51.367Z,46.70
2023-03-25T22:59:18.879Z,46.69
2023-03-25T23:01:46.643Z,45.87
2023-03-25T23:04:14.442Z,46.23
2023-03-25T23:06:42.106Z,47.57
2023-03-25T23:09:10.173Z,46.35
2023-03-25T23:11:38.468Z,47.70
2023-03-25T23:14:08.881Z,48.02
2023-03-25T23:16:36.908Z,47.94
2023-03-25T23:19:06.188Z,47.61
2023-03-25T23:21:34.363Z,48.68
2023-03-25T23:24:03.833Z,49.17
2023-03-25T23:26:41.168Z,49.47
2023-03-25T23:29:12.469Z,48.36
2023-03-25T23:31:42.369Z,48.36
2023-03-25T23:34:15.524Z,48.17
2023-03-25T23:36:43.624Z,48.61
2023-03-25T23:39:15.358Z,48.78
2023-03-25T23:41:43.099Z,48.50
2023-03-25T23:44:10.787Z,48.29
2023-03-25T23:46:38.227Z,48.05
2023-03-25T23:49:06.039Z,48.20
2023-03-25T23:51:36.535Z,48.87
2023-03-25T23:54:05.921Z,48.78
2023-03-25T23:56:33.715Z,48.69
2023-03-25T23:59:01.724Z,49.19
